• Join FlightAware (Why Join?)
  • Login
  • US Flag 
05:50PM EST


 

Airport Tracker/Info


-or-


 

Live Flight TrackerFlight Track Log ✈ QTR233 ✈ 30-Apr-2012 ✈ VIDP / DEL - OTBD

Flight Track Log - Related Links

Times and Time Zones

All times are in EDT time to prevent confusion due to time zone crossing. See the QTR233 flight status page for this flight to view local times or setup timezone preferences in your user account.

Time Position Orientation Groundspeed Altitude Reporting Facility
EDT Latitude Longitude Course Direction KTS MPH feet Rate Location/Type
07:45PM 28.5373 76.3254 267° West  Level Estimated
07:46PM 28.5322 76.2010 267° West  Level Estimated
07:47PM 28.5270 76.0766 267° West  Level Estimated
07:48PM 28.5217 75.9523 267° West  Level Estimated
07:49PM 28.5163 75.8279 267° West  Level Estimated
07:50PM 28.5107 75.7036 267° West  Level Estimated
07:51PM 28.5051 75.5793 267° West  Level Estimated
07:52PM 28.4993 75.4549 267° West  Level Estimated
07:53PM 28.4934 75.3307 267° West  Level Estimated
07:54PM 28.4874 75.2064 267° West  Level Estimated
07:55PM 28.4813 75.0821 267° West  Level Estimated
07:56PM 28.4751 74.9578 267° West  Level Estimated
07:57PM 28.4688 74.8336 267° West  Level Estimated
07:58PM 28.4624 74.7094 267° West  Level Estimated
07:59PM 28.4558 74.5852 267° West  Level Estimated
08:00PM 28.4491 74.4610 266° West  Level Estimated
08:01PM 28.4424 74.3368 266° West  Level Estimated
08:02PM 28.4355 74.2126 266° West  Level Estimated
08:03PM 28.4284 74.0885 266° West  Level Estimated
08:04PM 28.4213 73.9644 266° West  Level Estimated
08:05PM 28.4141 73.8403 266° West  Level Estimated
08:06PM 28.4068 73.7162 266° West  Level Estimated
08:07PM 28.3993 73.5921 266° West  Level Estimated
08:08PM 28.3917 73.4680 266° West  Level Estimated
08:09PM 28.3841 73.3440 266° West  Level Estimated
08:10PM 28.3763 73.2200 266° West  Level Estimated
08:11PM 28.3684 73.0960 266° West  Level Estimated
08:12PM 28.3603 72.9720 266° West  Level Estimated
08:13PM 28.3522 72.8480 266° West  Level Estimated
08:14PM 28.3440 72.7241 266° West  Level Estimated
08:15PM 28.3356 72.6001 266° West  Level Estimated
08:16PM 28.3272 72.4762 266° West  Level Estimated
08:17PM 28.3186 72.3523 265° West  Level Estimated
08:18PM 28.3099 72.2284 265° West  Level Estimated
08:19PM 28.3011 72.1046 265° West  Level Estimated
08:20PM 28.2922 71.9808 265° West  Level Estimated
08:21PM 28.2831 71.8570 265° West  Level Estimated
08:22PM 28.2740 71.7332 265° West  Level Estimated
08:23PM 28.2647 71.6094 265° West  Level Estimated
08:24PM 28.2554 71.4856 265° West  Level Estimated
08:25PM 28.2459 71.3619 265° West  Level Estimated
08:26PM 28.2363 71.2382 265° West  Level Estimated
08:27PM 28.2267 71.1145 265° West  Level Estimated
08:28PM 28.2169 70.9909 265° West  Level Estimated
08:29PM 28.2069 70.8673 265° West  Level Estimated
08:30PM 28.1969 70.7437 265° West  Level Estimated
08:31PM 28.1868 70.6201 265° West  Level Estimated
08:32PM 28.1765 70.4965 265° West  Level Estimated
08:33PM 28.1661 70.3730 265° West  Level Estimated
08:34PM 28.1557 70.2495 264° West  Level Estimated
08:35PM 28.1451 70.1260 264° West  Level Estimated
08:36PM 28.1344 70.0025 264° West  Level Estimated
08:37PM 28.1236 69.8791 264° West  Level Estimated
08:38PM 28.1127 69.7556 264° West  Level Estimated
08:39PM 28.1017 69.6322 264° West  Level Estimated
08:40PM 28.0905 69.5089 264° West  Level Estimated
08:41PM 28.0793 69.3855 264° West  Level Estimated
08:42PM 28.0679 69.2622 264° West  Level Estimated
08:43PM 28.0565 69.1389 264° West  Level Estimated
08:44PM 28.0449 69.0157 264° West  Level Estimated
08:45PM 28.0332 68.8924 264° West  Level Estimated
08:46PM 28.0214 68.7692 264° West  Level Estimated
08:47PM 28.0095 68.6460 264° West  Level Estimated
08:48PM 27.9975 68.5229 264° West  Level Estimated
08:49PM 27.9854 68.3998 264° West  Level Estimated
08:50PM 27.9731 68.2767 264° West  Level Estimated
08:51PM 27.9608 68.1536 263° West  Level Estimated
08:52PM 27.9484 68.0306 263° West  Level Estimated
08:53PM 27.9358 67.9076 263° West  Level Estimated
08:54PM 27.9231 67.7846 263° West  Level Estimated
08:55PM 27.9103 67.6616 263° West  Level Estimated
08:56PM 27.8974 67.5387 263° West  Level Estimated
08:57PM 27.8845 67.4158 263° West  Level Estimated
08:58PM 27.8713 67.2929 263° West  Level Estimated
08:59PM 27.8581 67.1701 263° West  Level Estimated
09:00PM 27.8448 67.0473 263° West  Level Estimated
09:01PM 27.8314 66.9245 263° West  Level Estimated
09:02PM 27.8178 66.8018 263° West  Level Estimated
09:03PM 27.8042 66.6790 263° West  Level Estimated
09:04PM 27.7904 66.5564 263° West  Level Estimated
09:05PM 27.7765 66.4337 263° West  Level Estimated
09:06PM 27.7626 66.3111 263° West  Level Estimated
09:07PM 27.7485 66.1885 263° West  Level Estimated
09:08PM 27.7343 66.0659 263° West  Level Estimated
09:09PM 27.7200 65.9434 262° West  Level Estimated
09:10PM 27.7056 65.8209 262° West  Level Estimated
09:11PM 27.6911 65.6985 262° West  Level Estimated
09:12PM 27.6764 65.5760 262° West  Level Estimated
09:13PM 27.6617 65.4536 262° West  Level Estimated
09:14PM 27.6469 65.3313 262° West  Level Estimated
09:15PM 27.6319 65.2089 262° West  Level Estimated
09:16PM 27.6169 65.0866 262° West  Level Estimated
09:17PM 27.6017 64.9644 262° West  Level Estimated
09:18PM 27.5864 64.8421 262° West  Level Estimated
09:19PM 27.5711 64.7199 262° West  Level Estimated
09:20PM 27.5556 64.5978 262° West  Level Estimated
09:21PM 27.5400 64.4757 262° West  Level Estimated
09:22PM 27.5243 64.3536 262° West  Level Estimated
09:23PM 27.5085 64.2315 262° West  Level Estimated
09:24PM 27.4926 64.1095 262° West  Level Estimated
09:25PM 27.4766 63.9875 262° West  Level Estimated
09:26PM 27.4604 63.8656 261° West  Level Estimated
09:27PM 27.4442 63.7436 261° West  Level Estimated
09:28PM 27.4279 63.6218 261° West  Level Estimated
09:29PM 27.4114 63.4999 261° West  Level Estimated
09:30PM 27.3949 63.3781 261° West  Level Estimated
09:31PM 27.3783 63.2563 261° West  Level Estimated
09:32PM 27.3615 63.1346 261° West  Level Estimated
09:33PM 27.3446 63.0129 261° West  Level Estimated
09:34PM 27.3277 62.8913 261° West  Level Estimated
09:35PM 27.3106 62.7696 261° West  Level Estimated
09:36PM 27.2934 62.6480 261° West  Level Estimated
09:37PM 27.2761 62.5265 261° West  Level Estimated
09:38PM 27.2587 62.4050 261° West  Level Estimated
09:39PM 27.2412 62.2835 261° West  Level Estimated
09:40PM 27.2236 62.1621 261° West  Level Estimated
09:41PM 27.2059 62.0407 261° West  Level Estimated
09:42PM 27.1881 61.9193 261° West  Level Estimated
09:43PM 27.1702 61.7980 261° West  Level Estimated
09:44PM 27.1522 61.6767 260° West  Level Estimated
09:45PM 27.1341 61.5555 260° West  Level Estimated
09:46PM 27.1159 61.4343 260° West  Level Estimated
09:47PM 27.0975 61.3131 260° West  Level Estimated
09:48PM 27.0791 61.1920 260° West  Level Estimated
09:49PM 27.0606 61.0709 260° West  Level Estimated
09:50PM 27.0419 60.9499 260° West  Level Estimated
09:51PM 27.0232 60.8289 260° West  Level Estimated
09:52PM 27.0043 60.7079 260° West  Level Estimated
09:53PM 26.9854 60.5870 260° West  Level Estimated
09:54PM 26.9663 60.4661 260° West  Level Estimated
09:55PM 26.9472 60.3453 260° West  Level Estimated
09:56PM 26.9279 60.2245 260° West  Level Estimated
09:57PM 26.9086 60.1038 260° West  Level Estimated
09:58PM 26.8891 59.9831 260° West  Level Estimated
09:59PM 26.8695 59.8624 260° West  Level Estimated
10:00PM 26.8499 59.7418 260° West  Level Estimated
10:01PM 26.8301 59.6212 260° West  Level Estimated
10:02PM 26.8102 59.5006 260° West  Level Estimated
10:03PM 26.7903 59.3801 259° West  Level Estimated
10:04PM 26.7702 59.2597 259° West  Level Estimated
10:05PM 26.7500 59.1393 259° West  Level Estimated
10:06PM 26.7297 59.0189 259° West  Level Estimated
10:07PM 26.7093 58.8985 259° West  Level Estimated
10:08PM 26.6889 58.7783 259° West  Level Estimated
10:09PM 26.6683 58.6580 259° West  Level Estimated
10:10PM 26.6476 58.5378 259° West  Level Estimated
10:11PM 26.6268 58.4177 259° West  Level Estimated
10:12PM 26.6059 58.2976 259° West  Level Estimated
10:13PM 26.5849 58.1775 259° West  Level Estimated
10:14PM 26.5638 58.0574 259° West  Level Estimated
10:15PM 26.5426 57.9375 259° West  Level Estimated
10:16PM 26.5213 57.8175 259° West  Level Estimated
10:17PM 26.4999 57.6976 259° West  Level Estimated
10:18PM 26.4785 57.5778 259° West  Level Estimated
10:19PM 26.4569 57.4580 259° West  Level Estimated
10:20PM 26.4352 57.3382 259° West  Level Estimated
10:21PM 26.4134 57.2185 258° West  Level Estimated
10:22PM 26.3915 57.0989 258° West  Level Estimated
10:23PM 26.3695 56.9792 258° West  Level Estimated
10:24PM 26.3474 56.8597 258° West  Level Estimated
10:25PM 26.3252 56.7401 258° West  Level Estimated
10:26PM 26.3029 56.6207 258° West  Level Estimated
10:27PM 26.2805 56.5012 258° West  Level Estimated
10:28PM 26.2581 56.3818 258° West  Level Estimated
10:29PM 26.2355 56.2625 258° West  Level Estimated
10:30PM 26.2128 56.1432 258° West  Level Estimated
10:31PM 26.1900 56.0239 258° West  Level Estimated
10:32PM 26.1671 55.9047 258° West  Level Estimated
10:33PM 26.1442 55.7856 258° West  Level Estimated
10:34PM 26.1211 55.6665 258° West  Level Estimated
10:35PM 26.0979 55.5474 258° West  Level Estimated
10:36PM 26.0746 55.4284 258° West  Level Estimated
10:37PM 26.0513 55.3094 258° West  Level Estimated
10:38PM 26.0278 55.1905 258° West  Level Estimated
10:39PM 26.0042 55.0716 258° West  Level Estimated
10:40PM 25.9806 54.9528 257° West  Level Estimated
10:41PM 25.9568 54.8340 257° West  Level Estimated
10:42PM 25.9330 54.7153 257° West  Level Estimated
10:43PM 25.9090 54.5966 257° West  Level Estimated
10:44PM 25.8850 54.4780 257° West  Level Estimated
10:45PM 25.8608 54.3594 257° West  Level Estimated
10:46PM 25.8366 54.2408 257° West  Level Estimated
10:47PM 25.8123 54.1223 257° West  Level Estimated
10:48PM 25.7878 54.0039 257° West  Level Estimated
10:49PM 25.7633 53.8855 257° West  Level Estimated
10:50PM 25.7387 53.7672 257° West  Level Estimated
10:51PM 25.7139 53.6489 257° West  Level Estimated
10:52PM 25.6891 53.5306 257° West  Level Estimated
10:53PM 25.6642 53.4124 257° West  Level Estimated
10:54PM 25.6392 53.2943 257° West  Level Estimated
10:55PM 25.6141 53.1762 257° West  Level Estimated
10:56PM 25.5889 53.0582 257° West  Level Estimated
10:57PM 25.5636 52.9402 257° West  Level Estimated
10:58PM 25.5382 52.8222 257° West  Level Estimated
10:59PM 25.5128 52.7043 257° West  Level Estimated
11:00PM 25.4872 52.5865 256° West  Level Estimated
11:01PM 25.4615 52.4687 256° West  Level Estimated
11:02PM 25.4358 52.3509 256° West  Level Estimated
11:03PM 25.4099 52.2332 256° West  Level Estimated
11:04PM 25.3839 52.1156 256° West  Level Estimated
11:05PM 25.3579 51.9980 256° West  Level Estimated
11:06PM 25.3318 51.8805 256° West  Level Estimated
11:07PM 25.3055 51.7630 256° West  Level Estimated
11:08PM 25.2792 51.6455 256° West  Level Estimated
11:09PM 25.2528 51.5281 76° East  Level Estimated
11:10PM 25.2792 51.6455 256° West  Level Estimated
11:11PM 25.2528 51.5281 76° East  Level Estimated
11:12PM 25.2792 51.6455 256° West  Level Estimated
11:13PM 25.2528 51.5281 76° East  Level Estimated
11:14PM 25.2792 51.6455 256° West  Level Estimated
11:15PM 25.2528 51.5281 76° East  Level Estimated
11:16PM 25.2792 51.6455 256° West  Level Estimated
11:17PM 25.2528 51.5281 76° East  Level Estimated
11:18PM 25.2792 51.6455 256° West  Level Estimated
11:19PM 25.2528 51.5281 76° East  Level Estimated
11:20PM 25.2792 51.6455 256° West  Level Estimated
11:21PM 25.2528 51.5281 76° East  Level Estimated
11:22PM 25.2792 51.6455 256° West  Level Estimated
11:23PM 25.2528 51.5281 76° East  Level Estimated
11:24PM 25.2792 51.6455 76° East  Level Estimated